KBPG/BPG METAR and TAF weather

Enter ICAO airport designator
Station Type Date Time Source
KBPG METAR 2021/03/02 17:35 UTC NOAA

KBPG 021735Z AUTO 24006KT 10SM CLR 09/M09 A3030 RMK AO2 T00931086


Station Type Date Time Source
KBPG Decoded METAR 2021/03/02 17:35 UTC NOAA

Big Spring, Big Spring McMahon-Wrinkle Airport, TX, United States (KBPG) 32-12N 101-31W
Mar 02, 2021 - 12:35 PM EST / 2021.03.02 1735 UTC
Wind: from the WSW (240 degrees) at 7 MPH (6 KT):0
Visibility: 10 mile(s):0
Sky conditions: clear
Temperature: 48.7 F (9.3 C)
Dew Point: 16.5 F (-8.6 C)
Relative Humidity: 27%
Pressure (altimeter): 30.3 in. Hg (1026 hPa)
ob: KBPG 021735Z AUTO 24006KT 10SM CLR 09/M09 A3030 RMK AO2 T00931086
cycle: 17

Station Type Date Time Source
KBPG TAF UTC NOAA

Error!

Example: see airport list